South Salem, Indiana
Current Conditions -  °F | °C
As of 4:53 AM on Monday 26 Jan 2015 (Local Time) from KMIE Reporting Station
Overcast Overcast  
Wind Chill:   Ceiling: 3800
Heat Index: 18°   Visibility: 10mi
Dew Point: 12°   Wind: 14mph
Humidity: 78%   Direction: 20°NNE
Pressure: 29.88"   Gusts: NA
Location:  40.2091°N, 84.8536°W
Report Text: KMIE 260953Z AUTO 02012KT 10SM FEW016 OVC038 M08/M11 A2988 RMK AO2 SLP128 T10781111
Loading
Personal Weather Stations






























Interactive Weather Map New forecast layout! Learn more

10-Day Weather Forecast

Advertisements
Track Severe Weather on mobile